createdAt,value
2022-09-11T00:00:17.626Z,99564.70
2022-09-11T00:02:51.125Z,99559.24
2022-09-11T00:05:25.876Z,99557.00
2022-09-11T00:07:59.444Z,99572.52
2022-09-11T00:10:32.472Z,99560.95
2022-09-11T00:13:05.516Z,99542.35
2022-09-11T00:15:43.271Z,99530.41
2022-09-11T00:18:18.775Z,99540.14
2022-09-11T00:20:54.145Z,99546.26
2022-09-11T00:23:28.510Z,99528.19
2022-09-11T00:26:05.021Z,99522.06
2022-09-11T00:28:38.137Z,99537.92
2022-09-11T00:31:14.770Z,99521.36
2022-09-11T00:33:47.595Z,99549.98
2022-09-11T00:36:26.313Z,99516.94
2022-09-11T00:38:59.529Z,99522.56
2022-09-11T00:41:36.586Z,99519.00
2022-09-11T00:44:19.984Z,99519.00
2022-09-11T00:46:58.112Z,99522.41
2022-09-11T00:49:44.080Z,99519.35
2022-09-11T00:52:28.770Z,99509.98
2022-09-11T00:55:15.384Z,99509.79
2022-09-11T00:57:56.094Z,99525.49
2022-09-11T01:00:28.876Z,99499.60
2022-09-11T01:05:48.687Z,99510.00
2022-09-11T01:08:23.011Z,99509.84
2022-09-11T01:11:22.525Z,99496.55
2022-09-11T01:14:34.672Z,99496.55
2022-09-11T01:17:21.203Z,99498.09
2022-09-11T01:20:07.537Z,99501.98
2022-09-11T01:23:05.211Z,99490.75
2022-09-11T01:26:20.302Z,99498.93
2022-09-11T01:29:05.056Z,99493.66
2022-09-11T01:31:47.254Z,99494.84
2022-09-11T01:34:30.348Z,99492.12
2022-09-11T01:37:09.756Z,99495.17
2022-09-11T01:39:46.443Z,99491.45
2022-09-11T01:42:21.262Z,99486.33
2022-09-11T01:44:59.253Z,99482.23
2022-09-11T01:47:32.081Z,99491.45
2022-09-11T01:50:11.106Z,99484.96
2022-09-11T01:52:58.311Z,99478.15
2022-09-11T01:55:38.302Z,99491.27
2022-09-11T01:58:18.618Z,99491.44
2022-09-11T02:00:52.574Z,99494.32
2022-09-11T02:03:33.356Z,99479.86
2022-09-11T02:06:12.557Z,99471.14
2022-09-11T02:09:10.763Z,99476.09
2022-09-11T02:11:45.602Z,99480.52
2022-09-11T02:14:48.278Z,99465.02
2022-09-11T02:17:59.139Z,99462.13
2022-09-11T02:20:32.771Z,99477.12
2022-09-11T02:23:07.310Z,99470.95
2022-09-11T02:25:41.437Z,99460.74
2022-09-11T02:28:14.877Z,99464.16
2022-09-11T02:30:48.322Z,99463.12
2022-09-11T02:33:37.028Z,99455.42
2022-09-11T02:36:35.165Z,99461.90
2022-09-11T02:39:43.112Z,99462.91
2022-09-11T02:42:39.875Z,99481.16
2022-09-11T02:45:28.423Z,99464.08
2022-09-11T02:48:39.403Z,99475.68
2022-09-11T02:51:44.912Z,99480.28
2022-09-11T02:54:31.264Z,99478.44
2022-09-11T02:57:16.249Z,99473.63
2022-09-11T03:00:00.003Z,99473.28
2022-09-11T03:02:35.116Z,99481.13
2022-09-11T03:05:07.922Z,99476.67
2022-09-11T03:07:41.055Z,99486.70
2022-09-11T03:10:14.105Z,99475.12
2022-09-11T03:12:47.024Z,99476.63
2022-09-11T03:15:21.477Z,99488.92
2022-09-11T03:17:54.962Z,99488.03
2022-09-11T03:20:28.857Z,99486.49
2022-09-11T03:23:01.701Z,99506.11
2022-09-11T03:25:34.741Z,99504.56
2022-09-11T03:28:08.478Z,99520.59
2022-09-11T03:30:45.210Z,99517.33
2022-09-11T03:33:19.118Z,99530.48
2022-09-11T03:35:52.798Z,99527.80
2022-09-11T03:38:26.338Z,99524.07
2022-09-11T03:40:59.845Z,99524.42
2022-09-11T03:43:33.579Z,99539.09
2022-09-11T03:46:07.013Z,99540.12
2022-09-11T03:48:40.195Z,99537.41
2022-09-11T03:51:13.278Z,99544.92
2022-09-11T03:53:47.565Z,99556.50
2022-09-11T03:56:21.427Z,99547.64
2022-09-11T03:59:00.456Z,99547.99
2022-09-11T04:01:33.655Z,99552.76
2022-09-11T04:04:07.798Z,99550.21
2022-09-11T04:06:43.614Z,99547.99
2022-09-11T04:09:17.524Z,99560.27
2022-09-11T04:11:53.791Z,99550.03
2022-09-11T04:14:28.224Z,99558.87
2022-09-11T04:17:02.643Z,99563.83
2022-09-11T04:19:36.481Z,99573.70
2022-09-11T04:22:10.521Z,99574.36
2022-09-11T04:24:44.430Z,99575.06
2022-09-11T04:27:18.710Z,99572.50
2022-09-11T04:29:52.469Z,99570.28
2022-09-11T04:32:26.515Z,99577.09
2022-09-11T04:34:59.403Z,99584.06
2022-09-11T04:37:35.766Z,99586.62
2022-09-11T04:40:11.102Z,99588.52
2022-09-11T04:42:45.309Z,99581.70
2022-09-11T04:45:19.316Z,99585.45
2022-09-11T04:47:53.480Z,99584.76
2022-09-11T04:50:26.726Z,99584.76
2022-09-11T04:53:01.739Z,99586.31
2022-09-11T04:55:35.315Z,99581.20
2022-09-11T04:58:10.235Z,99584.76
2022-09-11T05:00:43.666Z,99579.98
2022-09-11T05:03:16.630Z,99591.41
2022-09-11T05:05:49.988Z,99586.45
2022-09-11T05:08:27.045Z,99576.22
2022-09-11T05:11:00.892Z,99583.89
2022-09-11T05:13:36.668Z,99578.61
2022-09-11T05:16:31.544Z,99583.36
2022-09-11T05:19:05.629Z,99582.66
2022-09-11T05:21:43.185Z,99586.08
2022-09-11T05:24:17.018Z,99586.78
2022-09-11T05:26:51.390Z,99596.15
2022-09-11T05:29:31.673Z,99589.67
2022-09-11T05:32:05.759Z,99607.55
2022-09-11T05:34:39.488Z,99604.16
2022-09-11T05:37:13.929Z,99612.33
2022-09-11T05:39:49.809Z,99609.61
2022-09-11T05:42:23.276Z,99606.55
2022-09-11T05:44:57.010Z,99600.94
2022-09-11T05:47:30.971Z,99604.69
2022-09-11T05:50:03.991Z,99612.00
2022-09-11T05:52:38.412Z,99620.54
2022-09-11T05:55:11.637Z,99615.42
2022-09-11T05:57:45.693Z,99613.70
2022-09-11T06:00:19.306Z,99613.20
2022-09-11T06:02:58.490Z,99611.67
2022-09-11T06:05:33.372Z,99612.53
2022-09-11T06:08:07.006Z,99612.36
2022-09-11T06:10:49.124Z,99615.92
2022-09-11T06:13:24.039Z,99615.42
2022-09-11T06:15:57.790Z,99609.97
2022-09-11T06:18:31.761Z,99606.25
2022-09-11T06:21:11.043Z,99598.73
2022-09-11T06:23:51.487Z,99606.41
2022-09-11T06:26:27.413Z,99606.44
2022-09-11T06:29:01.564Z,99616.47
2022-09-11T06:31:35.509Z,99610.35
2022-09-11T06:34:08.965Z,99614.44
2022-09-11T06:36:47.591Z,99613.77
2022-09-11T06:39:18.921Z,99609.31
2022-09-11T06:41:53.391Z,99607.45
2022-09-11T06:44:27.954Z,99617.52
2022-09-11T06:47:05.356Z,99617.34
2022-09-11T06:49:40.139Z,99611.39
2022-09-11T06:52:26.136Z,99612.74
2022-09-11T06:55:11.782Z,99609.51
2022-09-11T06:57:47.052Z,99607.09
2022-09-11T07:00:21.800Z,99614.60
2022-09-11T07:02:55.600Z,99613.61
2022-09-11T07:05:31.758Z,99612.75
2022-09-11T07:08:06.431Z,99617.66
2022-09-11T07:10:40.834Z,99629.77
2022-09-11T07:13:17.421Z,99634.89
2022-09-11T07:15:50.240Z,99641.72
2022-09-11T07:18:24.714Z,99646.16
2022-09-11T07:20:59.944Z,99644.61
2022-09-11T07:23:36.455Z,99641.69
2022-09-11T07:26:13.568Z,99639.64
2022-09-11T07:28:48.238Z,99641.71
2022-09-11T07:31:25.796Z,99649.20
2022-09-11T07:33:58.828Z,99656.33
2022-09-11T07:36:34.869Z,99648.81
2022-09-11T07:39:11.047Z,99644.36
2022-09-11T07:41:46.499Z,99646.08
2022-09-11T07:44:22.676Z,99658.00
2022-09-11T07:46:56.344Z,99665.17
2022-09-11T07:49:30.228Z,99658.89
2022-09-11T07:52:07.234Z,99652.55
2022-09-11T07:54:43.105Z,99647.93
2022-09-11T07:57:16.046Z,99639.56
2022-09-11T07:59:50.448Z,99637.52
2022-09-11T08:02:25.271Z,99635.81
2022-09-11T08:05:00.182Z,99635.11
2022-09-11T08:07:35.020Z,99641.56
2022-09-11T08:10:26.817Z,99642.91
2022-09-11T08:12:48.979Z,99642.53
2022-09-11T08:15:22.893Z,99640.48
2022-09-11T08:17:58.692Z,99641.14
2022-09-11T08:20:32.960Z,99638.95
2022-09-11T08:23:06.928Z,99639.65
2022-09-11T08:25:41.597Z,99642.41
2022-09-11T08:28:15.493Z,99636.10
2022-09-11T08:30:48.672Z,99640.02
2022-09-11T08:33:22.919Z,99636.77
2022-09-11T08:35:56.364Z,99629.89
2022-09-11T08:38:30.070Z,99639.22
2022-09-11T08:41:28.575Z,99638.03
2022-09-11T08:44:12.539Z,99638.86
2022-09-11T08:46:52.855Z,99637.00
2022-09-11T08:49:44.834Z,99642.13
2022-09-11T08:52:19.490Z,99633.75
2022-09-11T08:54:52.497Z,99628.50
2022-09-11T08:57:33.603Z,99629.16
2022-09-11T09:00:24.133Z,99624.20
2022-09-11T09:03:36.958Z,99638.19
2022-09-11T09:07:02.245Z,99643.84
2022-09-11T09:10:15.709Z,99651.02
2022-09-11T09:13:06.696Z,99642.11
2022-09-11T09:16:05.459Z,99644.52
2022-09-11T09:21:45.500Z,99646.84
2022-09-11T09:24:21.817Z,99643.60
2022-09-11T09:26:57.707Z,99644.28
2022-09-11T09:29:36.359Z,99644.28
2022-09-11T09:32:24.451Z,99637.63
2022-09-11T09:35:01.278Z,99641.05
2022-09-11T09:37:36.406Z,99636.23
2022-09-11T09:40:11.753Z,99642.35
2022-09-11T09:43:12.685Z,99649.66
2022-09-11T09:46:06.172Z,99647.72
2022-09-11T09:48:41.469Z,99643.59
2022-09-11T09:51:17.466Z,99643.23
2022-09-11T09:53:58.290Z,99640.13
2022-09-11T09:56:32.780Z,99642.83
2022-09-11T09:59:17.839Z,99641.20
2022-09-11T10:01:55.587Z,99641.80
2022-09-11T10:04:31.051Z,99635.37
2022-09-11T10:07:16.232Z,99628.08
2022-09-11T10:09:54.490Z,99631.11
2022-09-11T10:12:28.794Z,99638.77
2022-09-11T10:15:03.662Z,99633.61
2022-09-11T10:17:39.838Z,99631.02
2022-09-11T10:20:23.420Z,99630.95
2022-09-11T10:22:57.043Z,99630.53
2022-09-11T10:25:30.284Z,99629.55
2022-09-11T10:28:17.745Z,99631.67
2022-09-11T10:31:03.936Z,99628.82
2022-09-11T10:33:41.795Z,99625.20
2022-09-11T10:36:15.332Z,99631.94
2022-09-11T10:38:49.350Z,99632.42
2022-09-11T10:41:28.098Z,99634.86
2022-09-11T10:44:05.719Z,99635.91
2022-09-11T10:46:47.244Z,99636.58
2022-09-11T10:49:22.496Z,99633.59
2022-09-11T10:52:11.659Z,99637.75
2022-09-11T10:55:12.449Z,99623.38
2022-09-11T10:57:54.360Z,99626.35
2022-09-11T11:00:29.339Z,99622.06
2022-09-11T11:03:06.746Z,99616.53
2022-09-11T11:06:26.761Z,99607.44
2022-09-11T11:09:07.610Z,99605.52
2022-09-11T11:12:02.977Z,99598.61
2022-09-11T11:15:32.329Z,99606.45
2022-09-11T11:18:12.093Z,99604.60
2022-09-11T11:21:00.400Z,99598.55
2022-09-11T11:24:17.466Z,99596.88
2022-09-11T11:26:57.744Z,99597.92
2022-09-11T11:30:06.075Z,99597.23
2022-09-11T11:32:53.320Z,99597.58
2022-09-11T11:35:34.020Z,99587.41
2022-09-11T11:38:35.879Z,99589.48
2022-09-11T11:41:26.990Z,99578.52
2022-09-11T11:46:50.088Z,99578.47
2022-09-11T11:50:03.044Z,99580.88
2022-09-11T11:53:09.670Z,99584.99
2022-09-11T11:56:08.345Z,99589.17
2022-09-11T11:59:08.836Z,99583.36
2022-09-11T12:02:12.677Z,99587.44
2022-09-11T12:05:02.997Z,99584.89
2022-09-11T12:07:38.207Z,99588.58
2022-09-11T12:13:52.661Z,99592.19
2022-09-11T12:16:51.028Z,99593.03
2022-09-11T12:19:26.007Z,99598.61
2022-09-11T12:22:13.538Z,99597.11
2022-09-11T12:24:59.282Z,99593.19
2022-09-11T12:27:43.750Z,99580.89
2022-09-11T12:30:21.925Z,99581.61
2022-09-11T12:33:01.292Z,99588.14
2022-09-11T12:35:48.729Z,99581.31
2022-09-11T12:38:44.753Z,99579.63
2022-09-11T12:41:55.777Z,99577.38
2022-09-11T12:44:34.351Z,99576.08
2022-09-11T12:47:11.528Z,99575.66
2022-09-11T12:49:47.619Z,99571.11
2022-09-11T12:52:26.623Z,99577.94
2022-09-11T12:55:03.898Z,99571.55
2022-09-11T12:57:38.537Z,99569.66
2022-09-11T13:00:16.230Z,99569.28
2022-09-11T13:02:54.586Z,99568.53
2022-09-11T13:05:38.277Z,99563.59
2022-09-11T13:08:34.523Z,99558.98
2022-09-11T13:11:50.987Z,99559.84
2022-09-11T13:14:36.359Z,99559.52
2022-09-11T13:17:33.088Z,99549.94
2022-09-11T13:20:15.204Z,99545.83
2022-09-11T13:22:49.011Z,99535.24
2022-09-11T13:25:33.124Z,99526.48
2022-09-11T13:28:07.071Z,99526.05
2022-09-11T13:30:42.323Z,99522.27
2022-09-11T13:33:20.728Z,99522.69
2022-09-11T13:35:54.526Z,99511.86
2022-09-11T13:38:33.564Z,99513.80
2022-09-11T13:41:12.195Z,99513.86
2022-09-11T13:43:57.529Z,99508.09
2022-09-11T13:46:29.350Z,99505.48
2022-09-11T13:49:21.512Z,99502.32
2022-09-11T13:51:54.755Z,99492.00
2022-09-11T13:54:49.177Z,99495.55
2022-09-11T13:57:32.360Z,99489.14
2022-09-11T14:00:05.405Z,99492.13
2022-09-11T14:02:46.593Z,99495.05
2022-09-11T14:05:27.176Z,99489.77
2022-09-11T14:08:09.152Z,99496.36
2022-09-11T14:10:54.501Z,99496.30
2022-09-11T14:13:48.896Z,99485.46
2022-09-11T14:16:40.380Z,99482.22
2022-09-11T14:19:33.952Z,99481.91
2022-09-11T14:22:24.802Z,99475.92
2022-09-11T14:25:06.034Z,99473.95
2022-09-11T14:27:43.079Z,99474.70
2022-09-11T14:30:37.126Z,99473.97
2022-09-11T14:33:24.812Z,99470.55
2022-09-11T14:36:07.806Z,99467.28
2022-09-11T14:38:40.867Z,99471.27
2022-09-11T14:41:14.864Z,99473.82
2022-09-11T14:43:49.758Z,99484.02
2022-09-11T14:46:22.040Z,99486.38
2022-09-11T14:48:55.321Z,99481.20
2022-09-11T14:51:28.924Z,99484.05
2022-09-11T14:54:01.909Z,99481.73
2022-09-11T14:56:35.440Z,99474.16
2022-09-11T14:59:09.420Z,99485.46
2022-09-11T15:01:42.605Z,99468.36
2022-09-11T15:04:23.262Z,99477.94
2022-09-11T15:06:56.682Z,99472.78
2022-09-11T15:09:29.680Z,99468.36
2022-09-11T15:12:02.579Z,99466.32
2022-09-11T15:14:55.596Z,99470.17
2022-09-11T15:17:11.414Z,99469.81
2022-09-11T15:19:46.721Z,99461.66
2022-09-11T15:22:19.757Z,99462.09
2022-09-11T15:24:52.718Z,99461.45
2022-09-11T15:27:28.545Z,99459.14
2022-09-11T15:30:01.404Z,99455.41
2022-09-11T15:32:36.800Z,99447.95
2022-09-11T15:35:10.170Z,99459.45
2022-09-11T15:37:43.776Z,99454.77
2022-09-11T15:40:17.262Z,99447.30
2022-09-11T15:42:51.081Z,99455.75
2022-09-11T15:45:24.108Z,99454.70
2022-09-11T15:48:03.082Z,99458.14
2022-09-11T15:50:37.088Z,99451.84
2022-09-11T15:53:10.192Z,99456.33
2022-09-11T15:55:43.099Z,99460.48
2022-09-11T15:58:16.047Z,99457.55
2022-09-11T16:00:49.911Z,99470.01
2022-09-11T16:03:22.736Z,99467.59
2022-09-11T16:05:55.606Z,99473.17
2022-09-11T16:08:30.012Z,99469.05
2022-09-11T16:11:07.199Z,99463.81
2022-09-11T16:13:40.893Z,99464.41
2022-09-11T16:16:14.630Z,99461.24
2022-09-11T16:18:47.713Z,99453.30
2022-09-11T16:21:20.811Z,99455.05
2022-09-11T16:24:00.730Z,99451.17
2022-09-11T16:26:31.934Z,99454.80
2022-09-11T16:29:10.049Z,99456.73
2022-09-11T16:31:43.681Z,99454.71
2022-09-11T16:34:18.354Z,99459.98
2022-09-11T16:36:52.571Z,99455.59
2022-09-11T16:39:25.984Z,99454.76
2022-09-11T16:41:59.379Z,99454.78
2022-09-11T16:44:34.200Z,99455.11
2022-09-11T16:47:10.424Z,99459.36
2022-09-11T16:50:06.433Z,99459.89
2022-09-11T16:52:18.642Z,99456.61
2022-09-11T16:54:52.632Z,99462.52
2022-09-11T16:57:27.599Z,99457.67
2022-09-11T17:00:01.137Z,99464.11
2022-09-11T17:02:35.222Z,99457.94
2022-09-11T17:05:10.161Z,99457.25
2022-09-11T17:07:44.542Z,99463.04
2022-09-11T17:10:18.804Z,99462.32
2022-09-11T17:12:52.664Z,99465.73
2022-09-11T17:15:25.958Z,99463.22
2022-09-11T17:17:59.399Z,99455.74
2022-09-11T17:20:32.663Z,99449.48
2022-09-11T17:23:06.847Z,99447.32
2022-09-11T17:25:41.484Z,99447.17
2022-09-11T17:28:15.900Z,99436.61
2022-09-11T17:30:51.031Z,99441.42
2022-09-11T17:33:26.848Z,99452.00
2022-09-11T17:36:00.450Z,99436.34
2022-09-11T17:38:34.352Z,99438.59
2022-09-11T17:41:09.500Z,99444.58
2022-09-11T17:43:41.664Z,99439.85
2022-09-11T17:46:16.646Z,99445.32
2022-09-11T17:48:50.770Z,99452.15
2022-09-11T17:51:26.569Z,99437.20
2022-09-11T17:54:01.178Z,99437.20
2022-09-11T17:56:35.977Z,99437.01
2022-09-11T17:59:10.069Z,99433.09
2022-09-11T18:01:43.782Z,99443.34
2022-09-11T18:04:18.701Z,99441.14
2022-09-11T18:06:52.369Z,99438.93
2022-09-11T18:09:25.754Z,99450.52
2022-09-11T18:11:59.118Z,99438.42
2022-09-11T18:14:32.856Z,99435.86
2022-09-11T18:17:05.977Z,99432.98
2022-09-11T18:19:39.146Z,99439.30
2022-09-11T18:22:12.243Z,99428.89
2022-09-11T18:24:45.269Z,99423.29
2022-09-11T18:27:19.873Z,99418.01
2022-09-11T18:29:52.114Z,99423.63
2022-09-11T18:32:26.588Z,99420.58
2022-09-11T18:35:00.270Z,99417.16
2022-09-11T18:37:34.508Z,99405.94
2022-09-11T18:40:09.960Z,99408.98
2022-09-11T18:42:43.833Z,99404.90
2022-09-11T18:45:17.477Z,99414.11
2022-09-11T18:47:55.553Z,99409.48
2022-09-11T18:50:31.436Z,99402.84
2022-09-11T18:53:06.795Z,99414.45
2022-09-11T18:55:40.944Z,99401.50
2022-09-11T18:58:15.355Z,99396.23
2022-09-11T19:00:48.978Z,99397.26
2022-09-11T19:03:22.495Z,99398.47
2022-09-11T19:05:55.561Z,99397.43
2022-09-11T19:08:28.556Z,99386.70
2022-09-11T19:11:01.527Z,99392.66
2022-09-11T19:13:34.873Z,99398.81
2022-09-11T19:16:09.624Z,99386.55
2022-09-11T19:18:43.425Z,99392.33
2022-09-11T19:21:21.018Z,99383.12
2022-09-11T19:23:57.999Z,99383.80
2022-09-11T19:26:38.396Z,99382.44
2022-09-11T19:29:12.776Z,99370.86
2022-09-11T19:31:47.490Z,99379.20
2022-09-11T19:34:22.950Z,99381.42
2022-09-11T19:36:57.170Z,99386.88
2022-09-11T19:39:32.232Z,99382.46
2022-09-11T19:42:07.151Z,99384.84
2022-09-11T19:44:41.139Z,99364.23
2022-09-11T19:47:13.962Z,99366.77
2022-09-11T19:49:47.359Z,99373.92
2022-09-11T19:52:20.529Z,99380.41
2022-09-11T19:54:53.860Z,99378.02
2022-09-11T19:57:28.615Z,99369.34
2022-09-11T20:00:02.242Z,99378.20
2022-09-11T20:02:39.264Z,99374.28
2022-09-11T20:05:12.765Z,99366.27
2022-09-11T20:07:47.429Z,99362.33
2022-09-11T20:10:20.539Z,99358.43
2022-09-11T20:12:55.857Z,99347.86
2022-09-11T20:15:29.523Z,99346.14
2022-09-11T20:18:02.496Z,99342.39
2022-09-11T20:20:36.201Z,99349.38
2022-09-11T20:23:10.748Z,99340.16
2022-09-11T20:25:44.461Z,99341.70
2022-09-11T20:28:17.835Z,99342.23
2022-09-11T20:30:51.965Z,99339.51
2022-09-11T20:33:24.936Z,99340.87
2022-09-11T20:35:58.305Z,99339.51
2022-09-11T20:38:31.118Z,99335.42
2022-09-11T20:41:12.687Z,99338.97
2022-09-11T20:43:45.887Z,99323.81
2022-09-11T20:46:19.955Z,99320.58
2022-09-11T20:48:56.490Z,99327.72
2022-09-11T20:51:31.442Z,99321.08
2022-09-11T20:54:04.363Z,99322.81
2022-09-11T20:56:37.358Z,99326.89
2022-09-11T20:59:10.327Z,99322.45
2022-09-11T21:01:44.577Z,99322.45
2022-09-11T21:04:17.699Z,99320.91
2022-09-11T21:06:50.638Z,99317.68
2022-09-11T21:09:25.639Z,99313.92
2022-09-11T21:11:58.565Z,99315.64
2022-09-11T21:14:31.484Z,99317.66
2022-09-11T21:17:04.449Z,99313.75
2022-09-11T21:19:37.287Z,99311.53
2022-09-11T21:22:11.309Z,99309.48
2022-09-11T21:24:44.737Z,99309.47
2022-09-11T21:27:18.023Z,99313.52
2022-09-11T21:29:50.891Z,99306.53
2022-09-11T21:32:23.803Z,99302.09
2022-09-11T21:34:56.708Z,99306.00
2022-09-11T21:37:29.795Z,99304.97
2022-09-11T21:40:04.762Z,99303.93
2022-09-11T21:42:38.620Z,99310.42
2022-09-11T21:45:12.600Z,99314.18
2022-09-11T21:47:46.966Z,99299.34
2022-09-11T21:50:19.873Z,99299.34
2022-09-11T21:52:53.228Z,99292.48
2022-09-11T21:55:26.337Z,99284.84
2022-09-11T21:58:00.895Z,99284.84
2022-09-11T22:00:40.703Z,99287.72
2022-09-11T22:03:11.373Z,99279.69
2022-09-11T22:05:46.830Z,99279.00
2022-09-11T22:08:20.399Z,99272.01
2022-09-11T22:10:53.379Z,99275.74
2022-09-11T22:13:26.371Z,99273.88
2022-09-11T22:16:00.817Z,99267.70
2022-09-11T22:18:35.274Z,99264.62
2022-09-11T22:21:08.683Z,99262.03
2022-09-11T22:23:42.059Z,99262.72
2022-09-11T22:26:20.941Z,99259.63
2022-09-11T22:28:54.130Z,99252.30
2022-09-11T22:31:29.127Z,99265.95
2022-09-11T22:34:02.980Z,99262.17
2022-09-11T22:36:36.519Z,99265.55
2022-09-11T22:39:11.335Z,99270.00
2022-09-11T22:47:18.530Z,99258.00
2022-09-11T22:49:52.345Z,99255.28
2022-09-11T22:52:25.769Z,99250.50
2022-09-11T22:54:59.025Z,99251.36
2022-09-11T22:57:32.140Z,99246.41
2022-09-11T23:00:07.352Z,99243.31
2022-09-11T23:02:41.056Z,99242.27
2022-09-11T23:05:31.703Z,99241.23
2022-09-11T23:08:05.603Z,99232.69
2022-09-11T23:10:44.192Z,99233.04
2022-09-11T23:13:17.046Z,99234.41
2022-09-11T23:15:49.860Z,99236.41
2022-09-11T23:18:23.009Z,99236.77
2022-09-11T23:20:58.279Z,99235.04
2022-09-11T23:23:31.070Z,99236.41
2022-09-11T23:26:06.163Z,99245.23
2022-09-11T23:28:39.215Z,99234.32
2022-09-11T23:31:27.467Z,99238.73
2022-09-11T23:34:04.539Z,99243.50
2022-09-11T23:36:37.552Z,99237.55
2022-09-11T23:39:11.544Z,99238.37
2022-09-11T23:41:45.266Z,99238.37
2022-09-11T23:44:18.245Z,99234.81
2022-09-11T23:46:51.112Z,99237.86
2022-09-11T23:49:24.194Z,99231.91
2022-09-11T23:51:57.659Z,99235.14
2022-09-11T23:54:30.611Z,99233.27
2022-09-11T23:57:04.798Z,99238.86
2022-09-11T23:59:37.947Z,99242.45
